Time;durP1;ratioP1;P1;durP2;ratioP2;P2;SDS_P1;SDS_P2;PMS_P1;PMS_P2;Temp;Humidity;BMP_temperature;BMP_pressure;BME280_temperature;BME280_humidity;BME280_pressure;Samples;Min_cycle;Max_cycle;Signal;HPM_P1;HPM_P2
2021/05/17 00:01:54;;;;;;;3.05;0.70;;;;;;;10.83;81.52;97328.66;5008466;28;20176;-64
2021/05/17 00:04:32;;;;;;;3.90;0.90;;;;;;;10.80;81.45;97328.78;5008809;28;20026;-64
2021/05/17 00:06:59;;;;;;;2.63;0.60;;;;;;;10.85;81.16;97333.84;5019282;28;20025;-64
2021/05/17 00:09:24;;;;;;;5.20;1.63;;;;;;;11.07;80.55;97332.06;5022579;28;20308;-64
2021/05/17 00:11:51;;;;;;;4.07;0.73;;;;;;;10.92;80.21;97332.72;5020686;28;20098;-64
2021/05/17 00:14:18;;;;;;;3.28;0.80;;;;;;;10.98;80.96;97332.44;5019023;28;20022;-64
2021/05/17 00:16:44;;;;;;;4.80;0.90;;;;;;;10.92;80.43;97330.09;5017389;28;20022;-64
2021/05/17 00:19:09;;;;;;;3.25;0.52;;;;;;;10.91;80.75;97326.59;5019642;28;20025;-64
2021/05/17 00:21:36;;;;;;;3.75;0.80;;;;;;;10.85;81.23;97333.84;5018330;28;20105;-64
2021/05/17 00:24:03;;;;;;;2.60;0.70;;;;;;;10.85;81.62;97333.84;5022087;28;20021;-64
2021/05/17 00:26:28;;;;;;;2.58;0.57;;;;;;;10.74;82.08;97333.44;5020363;28;20045;-64
2021/05/17 00:28:54;;;;;;;3.70;0.70;;;;;;;10.92;81.91;97328.28;5016944;28;20048;-64
2021/05/17 00:31:19;;;;;;;3.28;1.00;;;;;;;10.88;81.76;97334.59;5020579;28;20022;-64
2021/05/17 00:33:45;;;;;;;5.47;1.00;;;;;;;10.91;81.34;97341.50;5020229;28;20014;-64
2021/05/17 00:36:12;;;;;;;4.90;0.90;;;;;;;10.77;82.01;97325.44;5019999;28;20049;-64
2021/05/17 00:38:38;;;;;;;4.65;1.30;;;;;;;10.79;81.63;97331.50;5009242;28;20044;-64
2021/05/17 00:41:03;;;;;;;2.35;0.82;;;;;;;10.73;82.25;97329.13;5021731;28;20104;-64
2021/05/17 00:43:37;;;;;;;2.65;0.85;;;;;;;10.77;82.19;97328.06;5016831;28;20260;-64
2021/05/17 00:46:08;;;;;;;0.88;0.60;;;;;;;10.83;81.61;97327.81;5018080;28;20089;-64
2021/05/17 00:48:34;;;;;;;1.27;0.60;;;;;;;10.83;81.58;97327.81;5017846;28;20080;-64
2021/05/17 00:51:02;;;;;;;3.38;0.90;;;;;;;10.88;81.90;97331.09;5018378;28;20021;-64
2021/05/17 00:53:27;;;;;;;2.90;0.68;;;;;;;10.73;81.59;97334.38;5021529;28;20090;-64
2021/05/17 00:55:53;;;;;;;3.67;0.80;;;;;;;10.75;81.57;97324.63;5023189;28;20026;-64
2021/05/17 00:58:18;;;;;;;6.80;0.70;;;;;;;10.79;81.78;97331.50;5016688;28;20025;-64
2021/05/17 01:00:44;;;;;;;2.53;0.90;;;;;;;10.70;81.57;97322.19;5021247;28;20033;-64
2021/05/17 01:03:10;;;;;;;2.38;0.60;;;;;;;10.80;81.15;97323.50;5018154;28;20037;-64
2021/05/17 01:05:37;;;;;;;3.80;0.90;;;;;;;10.72;81.63;97314.22;5018940;28;20212;-64
2021/05/17 01:08:03;;;;;;;4.68;0.80;;;;;;;10.74;81.49;97315.03;5019078;28;20029;-64
2021/05/17 01:10:31;;;;;;;5.03;0.90;;;;;;;10.78;81.62;97316.63;5007348;28;20092;-64
2021/05/17 01:12:57;;;;;;;3.00;0.63;;;;;;;10.72;81.96;97317.72;5008061;28;20063;-64
2021/05/17 01:15:22;;;;;;;3.97;0.52;;;;;;;10.67;81.99;97316.22;5006982;28;20310;-64
2021/05/17 01:17:48;;;;;;;3.33;0.95;;;;;;;10.72;81.49;97320.34;5004714;28;20049;-64
2021/05/17 01:20:17;;;;;;;2.25;0.60;;;;;;;10.73;81.27;97323.84;5004730;28;20257;-64
2021/05/17 01:22:53;;;;;;;5.13;0.80;;;;;;;10.79;81.71;97315.72;5004634;28;20038;-64
2021/05/17 01:25:22;;;;;;;2.80;0.70;;;;;;;10.75;82.10;97314.09;5003541;28;20022;-64
2021/05/17 01:27:48;;;;;;;4.07;0.60;;;;;;;10.73;81.77;97315.97;5004872;28;20022;-64
2021/05/17 01:30:14;;;;;;;5.63;0.77;;;;;;;10.73;82.25;97318.59;5004541;28;20194;-64
2021/05/17 01:32:42;;;;;;;7.35;0.90;;;;;;;10.72;82.22;97330.03;5004474;28;20026;-64
2021/05/17 01:35:09;;;;;;;1.45;0.50;;;;;;;10.67;82.41;97303.88;5019134;28;20028;-64
2021/05/17 01:37:37;;;;;;;3.83;0.70;;;;;;;10.67;82.22;97318.84;5017480;28;20026;-64
2021/05/17 01:40:03;;;;;;;4.25;0.82;;;;;;;10.59;82.71;97318.28;5009430;28;20371;-64
2021/05/17 01:42:30;;;;;;;1.90;0.55;;;;;;;10.72;83.14;97316.84;5005622;28;20030;-64
2021/05/17 01:44:58;;;;;;;2.00;0.50;;;;;;;10.80;82.90;97312.16;5005503;28;20090;-64
2021/05/17 01:47:25;;;;;;;3.40;1.00;;;;;;;10.73;82.61;97315.97;5005882;28;20038;-64
2021/05/17 01:49:52;;;;;;;4.50;0.70;;;;;;;10.66;83.22;97319.72;5008288;28;20018;-64
2021/05/17 01:52:19;;;;;;;2.28;0.80;;;;;;;10.54;83.27;97318.47;5007948;28;20195;-64
2021/05/17 01:54:48;;;;;;;2.38;0.70;;;;;;;10.56;82.81;97321.03;5020949;28;20022;-64
2021/05/17 01:57:13;;;;;;;1.95;0.70;;;;;;;10.55;83.09;97316.69;5020564;28;20339;-64
2021/05/17 01:59:39;;;;;;;2.05;0.60;;;;;;;10.49;83.23;97317.81;5022895;28;20033;-64
2021/05/17 02:02:04;;;;;;;3.30;0.60;;;;;;;10.47;83.90;97324.03;5024687;28;20271;-64
2021/05/17 02:04:30;;;;;;;2.58;0.80;;;;;;;10.47;83.97;97324.03;5011924;28;20049;-64
2021/05/17 02:06:55;;;;;;;2.22;0.75;;;;;;;10.43;84.30;97311.91;5011042;28;20026;-64
2021/05/17 02:09:21;;;;;;;0.50;0.40;;;;;;;10.43;83.96;97322.44;5009920;28;20056;-64
2021/05/17 02:11:47;;;;;;;1.92;0.73;;;;;;;10.40;84.19;97322.56;5010271;28;20034;-64
2021/05/17 02:14:14;;;;;;;4.63;0.70;;;;;;;10.28;84.45;97317.75;5011965;28;20028;-64
2021/05/17 02:16:39;;;;;;;3.47;0.70;;;;;;;10.27;85.15;97321.31;5012698;28;20096;-64
2021/05/17 02:19:05;;;;;;;3.55;0.80;;;;;;;10.37;84.81;97325.31;5012480;28;20313;-64
2021/05/17 02:21:31;;;;;;;3.00;0.90;;;;;;;10.31;85.21;97333.44;5008996;28;20050;-64
2021/05/17 02:23:56;;;;;;;3.47;0.80;;;;;;;10.38;84.63;97319.16;5011194;28;20347;-64
2021/05/17 02:26:22;;;;;;;2.53;0.65;;;;;;;10.42;85.12;97320.72;5011457;28;20029;-64
2021/05/17 02:28:47;;;;;;;7.05;0.80;;;;;;;10.42;84.64;97320.72;5012159;28;20252;-64
2021/05/17 02:31:13;;;;;;;4.90;0.88;;;;;;;10.45;84.97;97318.81;5010451;28;20033;-64
2021/05/17 02:33:39;;;;;;;3.20;0.90;;;;;;;10.32;84.52;97320.22;5012821;28;20044;-64
2021/05/17 02:36:06;;;;;;;2.65;0.57;;;;;;;10.33;84.47;97316.69;5011727;28;20272;-64
2021/05/17 02:38:33;;;;;;;1.15;0.55;;;;;;;10.34;84.38;97328.06;5015032;28;20022;-64
2021/05/17 02:40:59;;;;;;;2.40;0.70;;;;;;;10.32;84.53;97322.00;5023523;28;20053;-64
2021/05/17 02:43:26;;;;;;;3.15;0.50;;;;;;;10.37;84.26;97317.41;5017817;28;20028;-64
2021/05/17 02:45:52;;;;;;;1.33;0.60;;;;;;;10.24;84.23;97324.94;5014474;28;20029;-64
2021/05/17 02:48:18;;;;;;;2.63;0.63;;;;;;;10.29;84.57;97330.03;5009701;28;20025;-64
2021/05/17 02:50:46;;;;;;;1.30;0.50;;;;;;;10.31;85.15;97333.44;5012146;28;20088;-65
2021/05/17 02:53:37;;;;;;;4.43;0.90;;;;;;;10.18;85.18;97326.94;5020967;28;20026;-65
2021/05/17 02:56:25;;;;;;;3.70;1.25;;;;;;;10.29;84.79;97332.66;5023381;28;20198;-65
2021/05/17 02:58:51;;;;;;;2.85;0.80;;;;;;;10.24;85.25;97334.59;5014475;28;20029;-65
2021/05/17 03:01:36;;;;;;;2.83;0.80;;;;;;;10.27;85.10;97326.59;5009447;28;20026;-65
2021/05/17 03:04:12;;;;;;;3.25;0.57;;;;;;;10.32;84.93;97337.78;5009558;28;20324;-65
2021/05/17 03:06:40;;;;;;;2.10;0.73;;;;;;;10.44;84.64;97334.69;5019276;28;20045;-65
2021/05/17 03:09:08;;;;;;;5.20;0.88;;;;;;;10.39;85.17;97331.38;5020507;28;20022;-65
2021/05/17 03:11:54;;;;;;;2.10;0.70;;;;;;;10.35;84.58;97335.03;5020283;28;20025;-65
2021/05/17 03:14:20;;;;;;;2.63;0.70;;;;;;;10.36;85.06;97331.50;5020174;28;20038;-65
2021/05/17 03:16:48;;;;;;;1.45;0.70;;;;;;;10.27;84.89;97342.34;5024904;28;20045;-65
2021/05/17 03:19:14;;;;;;;5.65;0.80;;;;;;;10.23;84.53;97346.03;5023250;28;20098;-65
2021/05/17 03:21:41;;;;;;;3.55;0.93;;;;;;;10.32;84.40;97345.69;5020088;28;20045;-65
2021/05/17 03:24:07;;;;;;;2.85;1.00;;;;;;;10.29;84.84;97348.44;5022904;28;20029;-65
2021/05/17 03:26:35;;;;;;;4.18;0.82;;;;;;;10.28;84.51;97350.19;5019018;28;20022;-65
2021/05/17 03:29:01;;;;;;;3.20;0.82;;;;;;;10.31;84.85;97357.09;5011237;28;20064;-65
2021/05/17 03:31:26;;;;;;;3.63;0.80;;;;;;;10.30;84.45;97358.03;5009757;28;20316;-65
2021/05/17 03:33:51;;;;;;;3.03;0.77;;;;;;;10.29;84.78;97366.84;5010007;28;20030;-65
2021/05/17 03:36:17;;;;;;;2.65;0.77;;;;;;;10.29;84.10;97369.47;5009927;28;20133;-64
2021/05/17 03:38:43;;;;;;;7.60;0.85;;;;;;;10.24;83.73;97363.50;5007574;28;20379;-64
2021/05/17 03:41:09;;;;;;;0.55;0.47;;;;;;;10.29;83.83;97372.09;5006466;28;20026;-64
2021/05/17 03:43:34;;;;;;;5.10;1.75;;;;;;;10.28;83.77;97367.72;5006617;28;20097;-65
2021/05/17 03:45:59;;;;;;;4.50;0.77;;;;;;;10.22;83.42;97368.81;5006455;28;20022;-65
2021/05/17 03:48:25;;;;;;;4.72;0.95;;;;;;;10.23;83.48;97369.69;5008555;28;20045;-65
2021/05/17 03:50:50;;;;;;;2.33;0.70;;;;;;;10.36;82.87;97370.94;5011899;28;20029;-65
2021/05/17 03:53:17;;;;;;;2.58;0.75;;;;;;;10.29;83.31;97366.84;5010583;28;20019;-65
2021/05/17 03:55:43;;;;;;;5.35;0.90;;;;;;;10.14;83.93;97368.28;5008648;28;20086;-65
2021/05/17 03:58:08;;;;;;;2.95;0.93;;;;;;;10.09;83.40;97369.34;5008409;28;20033;-65
2021/05/17 04:00:34;;;;;;;3.28;0.80;;;;;;;10.17;83.72;97373.41;5009200;28;20066;-65
2021/05/17 04:03:01;;;;;;;4.53;1.25;;;;;;;10.21;83.77;97374.16;5007214;28;20033;-65
2021/05/17 04:15:43;;;;;;;2.00;0.75;;;;;;;10.12;82.69;97390.25;5005799;28;20419;-64
2021/05/17 04:18:08;;;;;;;1.48;0.50;;;;;;;10.15;82.91;97398.03;5005768;28;20030;-64
2021/05/17 04:20:34;;;;;;;0.50;0.50;;;;;;;10.07;83.14;97389.59;5005946;28;20069;-64
2021/05/17 04:22:59;;;;;;;3.53;0.85;;;;;;;10.14;82.79;97409.47;5005656;28;20030;-64
2021/05/17 04:25:25;;;;;;;2.58;0.70;;;;;;;10.11;83.12;97404.31;5005604;28;20026;-64
2021/05/17 04:27:50;;;;;;;4.18;0.73;;;;;;;10.08;83.14;97405.31;5005834;28;20030;-64
2021/05/17 04:30:16;;;;;;;4.00;0.75;;;;;;;10.02;83.74;97404.63;5005519;28;20090;-64
2021/05/17 04:32:41;;;;;;;1.15;0.30;;;;;;;10.04;83.21;97419.44;5005436;28;20353;-64
2021/05/17 04:35:07;;;;;;;1.77;0.57;;;;;;;10.01;83.10;97413.44;5005366;28;20222;-64
2021/05/17 04:37:33;;;;;;;3.08;0.73;;;;;;;10.01;83.13;97408.19;5005374;28;20033;-64
2021/05/17 04:39:58;;;;;;;2.65;0.60;;;;;;;9.99;83.87;97415.25;5005384;28;20213;-64
2021/05/17 04:42:24;;;;;;;3.05;0.57;;;;;;;9.98;83.54;97424.06;5005297;28;20102;-64
2021/05/17 04:44:49;;;;;;;2.50;0.50;;;;;;;9.95;83.49;97424.16;5004105;28;20026;-64
2021/05/17 04:47:14;;;;;;;2.38;0.68;;;;;;;10.00;83.80;97427.50;5005185;28;20085;-64
2021/05/17 04:49:40;;;;;;;2.38;0.40;;;;;;;10.02;83.50;97425.66;5005157;28;20391;-64
2021/05/17 04:52:05;;;;;;;3.50;0.65;;;;;;;10.08;82.47;97435.97;5005131;28;20037;-64
2021/05/17 04:54:31;;;;;;;3.40;0.80;;;;;;;10.16;82.56;97428.69;5004991;28;20217;-64
2021/05/17 04:56:56;;;;;;;1.80;0.57;;;;;;;10.14;83.13;97433.13;5005049;28;20383;-64
2021/05/17 04:59:22;;;;;;;2.65;0.70;;;;;;;10.14;82.95;97435.75;5004876;28;20237;-65
2021/05/17 05:01:47;;;;;;;3.00;0.65;;;;;;;10.24;82.59;97438.00;5004999;28;20338;-65
2021/05/17 05:04:13;;;;;;;1.27;0.80;;;;;;;10.27;81.79;97437.91;5004895;28;20022;-65
2021/05/17 05:06:38;;;;;;;1.40;0.70;;;;;;;10.35;82.02;97434.97;5004914;28;20033;-65
2021/05/17 05:09:04;;;;;;;2.92;0.85;;;;;;;10.43;82.69;97438.16;5004862;28;20264;-65
2021/05/17 05:11:29;;;;;;;3.28;0.90;;;;;;;10.40;82.64;97440.91;5004943;28;20249;-65
2021/05/17 05:13:55;;;;;;;2.15;1.23;;;;;;;10.38;83.03;97434.88;5004742;28;20031;-65
2021/05/17 05:16:20;;;;;;;4.75;1.20;;;;;;;10.43;82.46;97438.16;5004735;28;20182;-65
2021/05/17 05:18:45;;;;;;;1.80;1.00;;;;;;;10.46;81.93;97443.31;5004710;28;20340;-65
2021/05/17 05:21:11;;;;;;;2.38;1.13;;;;;;;10.28;82.61;97441.34;5004662;28;20057;-65
2021/05/17 05:23:36;;;;;;;1.45;0.95;;;;;;;10.37;82.69;97446.28;5004636;28;20340;-65
2021/05/17 05:26:30;;;;;;;2.33;1.40;;;;;;;10.35;82.00;97440.25;5004619;28;20033;-65
2021/05/17 05:29:11;;;;;;;1.38;0.90;;;;;;;10.29;82.82;97445.72;5004530;28;20030;-65
2021/05/17 05:34:02;;;;;;;2.00;1.05;;;;;;;10.27;83.11;97448.41;5004756;28;20120;-65
2021/05/17 05:36:28;;;;;;;3.70;1.00;;;;;;;10.28;82.50;97449.25;5004534;28;20030;-65
2021/05/17 05:38:53;;;;;;;2.20;0.98;;;;;;;10.24;83.48;97452.91;5004494;28;20045;-65
2021/05/17 05:41:19;;;;;;;1.73;0.80;;;;;;;10.25;82.32;97455.50;5004473;28;20026;-65
2021/05/17 05:43:44;;;;;;;2.80;0.70;;;;;;;10.22;82.36;97452.13;5004414;28;20022;-65
2021/05/17 05:46:10;;;;;;;2.35;1.17;;;;;;;10.33;81.63;97452.56;5004454;28;20054;-65
2021/05/17 05:48:47;;;;;;;4.07;0.85;;;;;;;10.37;83.58;97454.19;5004400;28;20268;-65
2021/05/17 05:51:16;;;;;;;4.03;0.55;;;;;;;10.48;82.49;97462.53;5004701;28;20242;-65
2021/05/17 05:53:42;;;;;;;2.38;0.63;;;;;;;10.63;81.67;97464.56;5004289;28;20026;-65
2021/05/17 05:56:07;;;;;;;4.18;1.00;;;;;;;10.78;81.76;97466.63;5004600;28;20153;-65
2021/05/17 05:58:33;;;;;;;2.75;0.82;;;;;;;10.99;81.47;97471.06;5004566;28;20026;-65
2021/05/17 06:00:58;;;;;;;1.65;0.50;;;;;;;11.06;80.80;97472.53;5004136;28;20055;-65
2021/05/17 06:03:23;;;;;;;3.70;0.98;;;;;;;11.13;80.26;97475.78;5004220;28;20023;-65
2021/05/17 06:05:49;;;;;;;0.32;0.30;;;;;;;11.03;80.43;97477.91;5004275;28;20257;-65
2021/05/17 06:08:14;;;;;;;1.30;0.40;;;;;;;10.98;80.96;97479.84;5004250;28;20026;-65
2021/05/17 06:10:40;;;;;;;3.08;0.60;;;;;;;10.83;80.90;97469.94;5004215;28;20063;-65
2021/05/17 06:13:06;;;;;;;1.42;0.50;;;;;;;10.93;81.21;97474.81;5004344;28;20027;-65
2021/05/17 06:15:31;;;;;;;0.98;0.57;;;;;;;10.90;80.81;97471.41;5004166;28;20026;-65
2021/05/17 06:17:57;;;;;;;2.67;1.25;;;;;;;10.87;81.14;97466.28;5004167;28;20094;-65
2021/05/17 06:20:23;;;;;;;1.10;0.50;;;;;;;10.86;80.40;97470.66;5004173;28;20033;-65
2021/05/17 06:22:50;;;;;;;1.73;0.60;;;;;;;10.91;81.08;97475.75;5004124;28;20379;-65
2021/05/17 06:25:16;;;;;;;2.05;0.50;;;;;;;11.04;80.53;97482.25;5004027;28;20030;-65
2021/05/17 06:27:42;;;;;;;3.28;0.77;;;;;;;10.93;81.76;97489.72;5004222;28;20026;-65
2021/05/17 06:30:11;;;;;;;1.95;0.65;;;;;;;10.99;81.72;97486.84;5004316;28;20041;-65
2021/05/17 06:32:38;;;;;;;2.05;0.50;;;;;;;10.94;80.97;97500.19;5004241;28;20022;-65
2021/05/17 06:35:06;;;;;;;1.90;0.50;;;;;;;10.70;81.66;97489.75;5003895;28;20026;-65
2021/05/17 06:37:32;;;;;;;4.15;0.60;;;;;;;10.75;81.81;97498.31;5004222;28;20101;-65
2021/05/17 06:39:57;;;;;;;1.65;0.30;;;;;;;10.76;82.25;97489.53;5003982;28;20077;-65
2021/05/17 06:42:23;;;;;;;1.75;0.50;;;;;;;10.69;82.63;97495.91;5004009;28;20049;-65
2021/05/17 06:44:49;;;;;;;2.83;0.80;;;;;;;10.86;81.48;97499.63;5007701;28;20027;-65
2021/05/17 06:47:15;;;;;;;1.80;0.57;;;;;;;10.90;81.11;97500.38;5007472;28;20221;-65
2021/05/17 06:49:42;;;;;;;2.35;0.50;;;;;;;11.01;81.25;97505.22;5007417;28;20022;-65
2021/05/17 06:52:11;;;;;;;5.43;0.70;;;;;;;10.92;81.96;97511.72;5007385;28;20085;-65
2021/05/17 06:54:37;;;;;;;2.53;0.60;;;;;;;10.97;81.58;97507.09;5007214;28;20030;-65
2021/05/17 06:59:41;;;;;;;2.80;0.80;;;;;;;10.98;80.91;97510.63;5007126;28;20075;-65
2021/05/17 07:02:09;;;;;;;3.10;0.75;;;;;;;11.43;80.36;97514.94;5007195;28;20018;-65
2021/05/17 07:04:35;;;;;;;4.30;0.80;;;;;;;11.49;79.62;97504.13;5007074;28;20073;-65
2021/05/17 07:07:02;;;;;;;6.53;0.77;;;;;;;11.49;80.67;97514.69;5007113;28;20030;-65
2021/05/17 07:12:14;;;;;;;1.88;0.60;;;;;;;11.52;78.49;97516.31;5007060;28;20030;-65
2021/05/17 07:14:40;;;;;;;1.80;0.40;;;;;;;12.00;78.39;97512.53;5007162;28;20314;-65
2021/05/17 07:17:06;;;;;;;1.92;0.63;;;;;;;12.58;76.65;97506.41;5006928;28;20072;-65
2021/05/17 07:19:32;;;;;;;3.40;0.60;;;;;;;12.71;75.25;97512.84;5006859;28;20038;-65
2021/05/17 07:24:41;;;;;;;1.98;0.63;;;;;;;12.82;75.50;97507.91;5006851;28;20049;-65
2021/05/17 07:27:07;;;;;;;1.42;0.52;;;;;;;12.70;76.21;97510.28;5006771;28;20030;-65
2021/05/17 07:29:35;;;;;;;4.30;0.93;;;;;;;12.91;75.97;97510.16;5006718;28;20041;-65
2021/05/17 07:32:00;;;;;;;2.15;0.90;;;;;;;13.07;77.22;97516.47;5006636;28;20309;-65
2021/05/17 07:34:28;;;;;;;3.05;1.02;;;;;;;13.14;74.93;97503.84;5006524;28;20030;-65
2021/05/17 07:36:54;;;;;;;3.17;0.80;;;;;;;13.54;74.01;97510.72;5006532;28;20072;-65
2021/05/17 07:39:20;;;;;;;4.22;0.80;;;;;;;13.21;75.39;97507.03;5006525;28;20022;-65
2021/05/17 07:41:45;;;;;;;2.80;0.55;;;;;;;13.20;74.34;97502.69;5006488;28;20029;-65
2021/05/17 07:44:11;;;;;;;5.22;0.90;;;;;;;13.08;76.03;97506.75;5006456;28;20030;-65
2021/05/17 07:46:36;;;;;;;2.53;0.68;;;;;;;12.75;74.20;97501.22;5006405;28;20090;-65
2021/05/17 07:49:17;;;;;;;3.22;0.80;;;;;;;12.77;76.08;97517.00;5006408;28;20341;-65
2021/05/17 07:51:44;;;;;;;2.97;0.73;;;;;;;12.41;76.04;97519.50;5006281;28;20034;-65
2021/05/17 07:54:11;;;;;;;3.33;0.70;;;;;;;12.47;77.18;97513.09;5006114;28;20027;-65
2021/05/17 07:56:36;;;;;;;3.85;0.60;;;;;;;12.38;76.26;97519.66;5006185;28;20089;-65
2021/05/17 07:59:02;;;;;;;1.45;0.45;;;;;;;12.30;76.26;97521.75;5006015;28;20226;-65
2021/05/17 08:01:28;;;;;;;1.73;0.70;;;;;;;12.68;77.16;97507.72;5006195;28;20218;-65
2021/05/17 08:03:53;;;;;;;2.30;0.68;;;;;;;13.10;74.30;97519.91;5006010;28;20030;-65
2021/05/17 08:06:19;;;;;;;1.92;0.57;;;;;;;13.67;74.11;97511.81;5005988;28;20030;-65
2021/05/17 08:08:45;;;;;;;2.72;0.77;;;;;;;14.88;69.76;97507.22;5006200;28;20106;-65
2021/05/17 08:11:10;;;;;;;2.40;0.50;;;;;;;14.99;68.57;97505.69;5005907;28;20034;-65
2021/05/17 08:13:38;;;;;;;1.13;0.43;;;;;;;14.97;70.70;97510.22;5005863;28;20221;-65
2021/05/17 08:16:04;;;;;;;4.60;0.73;;;;;;;14.96;69.10;97515.59;5006057;28;20026;-65
2021/05/17 08:18:31;;;;;;;1.15;0.40;;;;;;;14.88;67.29;97523.13;5005802;28;20037;-65
2021/05/17 08:20:57;;;;;;;2.28;0.70;;;;;;;14.79;68.60;97518.31;5005969;28;20046;-65
2021/05/17 08:23:22;;;;;;;2.10;0.70;;;;;;;14.78;70.29;97521.91;5005662;28;20296;-65
2021/05/17 08:25:48;;;;;;;3.92;1.02;;;;;;;15.75;65.87;97520.00;5005599;28;20037;-65
2021/05/17 08:28:14;;;;;;;1.88;0.60;;;;;;;16.06;64.48;97512.81;5005861;28;20329;-65
2021/05/17 08:30:42;;;;;;;2.70;0.60;;;;;;;16.86;63.16;97515.91;5005584;28;20036;-65
2021/05/17 08:33:08;;;;;;;3.38;0.90;;;;;;;16.56;64.55;97508.03;5005400;28;20337;-65
2021/05/17 08:35:34;;;;;;;2.70;0.47;;;;;;;16.23;64.28;97525.09;5005472;28;20026;-65
2021/05/17 08:38:00;;;;;;;4.72;0.80;;;;;;;15.77;66.77;97532.22;5005375;28;20041;-65
2021/05/17 08:40:26;;;;;;;2.45;0.60;;;;;;;15.66;65.70;97524.00;5005595;28;20121;-65
2021/05/17 08:42:53;;;;;;;2.80;1.00;;;;;;;15.52;64.58;97526.59;5005349;28;20121;-65
2021/05/17 08:45:19;;;;;;;5.78;0.75;;;;;;;15.29;66.21;97534.97;5005307;28;20030;-65
2021/05/17 08:47:45;;;;;;;5.50;0.98;;;;;;;15.11;67.03;97533.31;5005242;28;20026;-65
2021/05/17 08:50:10;;;;;;;2.75;1.00;;;;;;;15.12;68.39;97529.72;5005221;28;20325;-65
2021/05/17 08:52:38;;;;;;;4.68;1.00;;;;;;;15.79;66.29;97530.31;5005151;28;20081;-65
2021/05/17 08:55:07;;;;;;;5.97;1.10;;;;;;;16.69;63.48;97522.28;5005078;28;20018;-65
2021/05/17 08:57:33;;;;;;;4.07;0.93;;;;;;;17.41;62.22;97518.63;5004992;28;20049;-65
2021/05/17 08:59:58;;;;;;;3.95;1.02;;;;;;;17.86;62.80;97520.97;5004851;28;20058;-65
2021/05/17 09:02:27;;;;;;;6.28;1.20;;;;;;;17.19;61.68;97525.28;5005115;28;20093;-65
2021/05/17 09:05:11;;;;;;;5.00;1.02;;;;;;;16.29;63.08;97530.88;5004753;28;20092;-65
2021/05/17 09:07:42;;;;;;;6.97;1.23;;;;;;;15.82;64.22;97534.63;5004692;28;20034;-65
2021/05/17 09:10:16;;;;;;;7.30;0.88;;;;;;;15.00;66.11;97535.72;5004907;28;20061;-65
2021/05/17 09:12:54;;;;;;;5.63;1.13;;;;;;;15.41;64.46;97531.63;5004817;28;20093;-65
2021/05/17 09:15:37;;;;;;;3.63;0.80;;;;;;;15.74;63.30;97537.72;5004818;28;20030;-65
2021/05/17 09:18:06;;;;;;;5.07;0.82;;;;;;;15.93;66.08;97533.06;5005006;28;20026;-65
2021/05/17 09:20:37;;;;;;;2.25;0.80;;;;;;;16.96;61.39;97523.22;5004767;28;20261;-65
2021/05/17 09:23:13;;;;;;;2.88;0.60;;;;;;;17.11;61.62;97524.06;5004740;28;20077;-65
2021/05/17 09:25:57;;;;;;;5.80;0.90;;;;;;;17.13;60.10;97525.69;5004555;28;20097;-65
2021/05/17 09:28:38;;;;;;;4.03;1.00;;;;;;;16.82;61.54;97530.34;5004654;28;20025;-65
2021/05/17 09:31:09;;;;;;;3.63;0.93;;;;;;;16.58;64.09;97522.06;5004664;28;20148;-65
2021/05/17 09:33:43;;;;;;;5.03;1.08;;;;;;;16.19;62.31;97535.03;5004473;28;20026;-65
2021/05/17 09:36:25;;;;;;;3.97;0.90;;;;;;;15.80;63.28;97536.50;5004809;28;20056;-65
2021/05/17 09:39:05;;;;;;;2.83;0.90;;;;;;;15.72;63.01;97539.59;5004531;28;20058;-65
2021/05/17 09:41:41;;;;;;;3.55;1.00;;;;;;;16.27;67.26;97538.13;5004608;28;20026;-65
2021/05/17 09:44:08;;;;;;;6.70;1.17;;;;;;;17.31;63.11;97528.13;5004497;28;20029;-65
2021/05/17 09:47:01;;;;;;;3.05;0.93;;;;;;;17.09;60.39;97526.81;5004449;28;20030;-65
2021/05/17 09:49:36;;;;;;;5.05;1.08;;;;;;;17.04;60.44;97528.06;5004364;28;20054;-65
2021/05/17 09:52:04;;;;;;;3.15;0.93;;;;;;;16.87;61.29;97521.13;5004483;28;20029;-65
2021/05/17 09:54:31;;;;;;;4.00;1.00;;;;;;;16.59;61.10;97514.97;5004262;28;20049;-65
2021/05/17 09:57:07;;;;;;;3.15;1.08;;;;;;;16.64;63.90;97515.50;5004375;28;20026;-65
2021/05/17 09:59:39;;;;;;;4.28;1.02;;;;;;;17.21;58.14;97518.06;5004283;28;20069;-65
2021/05/17 10:02:04;;;;;;;3.30;0.60;;;;;;;18.14;59.03;97507.53;5004336;28;20030;-65
2021/05/17 10:04:30;;;;;;;4.20;1.00;;;;;;;17.88;59.02;97519.91;5004282;28;20061;-65
2021/05/17 10:06:55;;;;;;;3.13;0.70;;;;;;;16.97;59.81;97524.94;5004531;28;20030;-65
2021/05/17 10:09:22;;;;;;;6.35;1.13;;;;;;;16.51;62.02;97534.00;5004352;28;20145;-65
2021/05/17 10:11:48;;;;;;;3.38;0.68;;;;;;;16.00;64.91;97562.72;5004160;28;20045;-65
2021/05/17 10:14:13;;;;;;;2.92;0.77;;;;;;;15.67;66.06;97568.19;5004122;28;20069;-65
2021/05/17 10:16:41;;;;;;;7.43;1.30;;;;;;;14.88;69.35;97570.81;5004531;28;20042;-65
2021/05/17 10:19:08;;;;;;;6.55;1.13;;;;;;;14.86;70.78;97562.94;5008016;28;20031;-65
2021/05/17 10:21:33;;;;;;;4.72;1.00;;;;;;;15.88;71.47;97561.66;5008223;28;20213;-65
2021/05/17 10:24:01;;;;;;;1.90;0.60;;;;;;;16.85;70.25;97554.94;5007922;28;20030;-65
2021/05/17 10:26:31;;;;;;;2.15;0.65;;;;;;;16.80;68.50;97548.19;5008098;28;20069;-65
2021/05/17 10:29:00;;;;;;;7.53;1.05;;;;;;;16.50;69.48;97542.94;5008073;28;20033;-65
2021/05/17 10:31:26;;;;;;;3.42;0.60;;;;;;;16.00;65.91;97547.69;5007807;28;20026;-65
2021/05/17 10:33:57;;;;;;;3.50;0.73;;;;;;;15.52;66.66;97558.44;5007646;28;20133;-65
2021/05/17 10:36:56;;;;;;;4.40;1.05;;;;;;;14.98;69.33;97561.41;5007735;28;20026;-65
2021/05/17 10:39:37;;;;;;;2.83;0.77;;;;;;;14.96;70.24;97565.94;5008004;28;20328;-65
2021/05/17 10:47:47;;;;;;;6.38;0.70;;;;;;;15.16;69.42;97579.81;5007529;28;20029;-65
2021/05/17 10:50:19;;;;;;;2.75;0.70;;;;;;;15.43;71.00;97574.84;5007478;28;20029;-65
2021/05/17 10:52:45;;;;;;;1.40;0.43;;;;;;;16.30;67.94;97575.06;5007496;28;20026;-65
2021/05/17 10:55:15;;;;;;;1.40;0.30;;;;;;;16.67;68.80;97564.00;5007319;28;20026;-66
2021/05/17 10:58:07;;;;;;;1.95;0.50;;;;;;;16.16;67.00;97561.78;5007282;28;20084;-65
2021/05/17 11:00:34;;;;;;;2.33;0.50;;;;;;;15.70;67.89;97568.03;5007065;28;20038;-65
2021/05/17 11:03:10;;;;;;;1.95;0.47;;;;;;;15.38;68.04;97576.91;5007463;28;20309;-65
2021/05/17 11:05:36;;;;;;;1.13;0.25;;;;;;;14.32;68.72;97564.94;5007079;28;20034;-65
2021/05/17 11:08:06;;;;;;;2.75;0.30;;;;;;;13.84;70.40;97567.38;5007114;28;20093;-65
2021/05/17 11:10:42;;;;;;;0.70;0.35;;;;;;;13.74;71.38;97561.69;5007179;28;20242;-65
2021/05/17 11:13:22;;;;;;;2.45;0.63;;;;;;;13.91;73.13;97564.34;5007008;28;20217;-65
2021/05/17 11:15:54;;;;;;;2.15;0.55;;;;;;;14.04;72.26;97559.28;5007004;28;20329;-65
2021/05/17 11:18:43;;;;;;;1.00;0.50;;;;;;;13.96;71.90;97561.47;5006937;28;20022;-65
2021/05/17 11:21:27;;;;;;;1.38;0.47;;;;;;;13.88;72.55;97575.06;5007166;28;20341;-65
2021/05/17 11:23:59;;;;;;;2.50;0.70;;;;;;;13.57;73.94;97614.50;5006918;28;20041;-65
2021/05/17 11:26:26;;;;;;;2.53;0.70;;;;;;;13.16;77.11;97598.88;5006817;28;20022;-65
2021/05/17 11:28:51;;;;;;;1.17;0.30;;;;;;;13.35;71.90;97586.53;5006071;28;20034;-65
2021/05/17 11:33:57;;;;;;;2.28;0.40;;;;;;;14.12;75.62;97594.19;5006968;28;20040;-65
2021/05/17 11:36:34;;;;;;;1.73;0.63;;;;;;;14.37;74.34;97584.09;5006653;28;20042;-65
2021/05/17 11:41:49;;;;;;;1.20;0.20;;;;;;;14.12;72.52;97597.69;5006793;28;20037;-65
2021/05/17 11:44:31;;;;;;;3.00;0.60;;;;;;;13.90;71.18;97604.09;5006536;28;20021;-65
2021/05/17 11:47:06;;;;;;;3.25;0.57;;;;;;;13.51;73.24;97608.66;5006564;28;20031;-65
2021/05/17 11:49:34;;;;;;;0.65;0.28;;;;;;;13.29;72.30;97595.56;5006374;28;20033;-65
2021/05/17 11:52:22;;;;;;;2.90;0.50;;;;;;;13.39;72.78;97596.88;5006319;28;20217;-65
2021/05/17 11:54:50;;;;;;;0.68;0.35;;;;;;;13.49;72.92;97610.50;5006182;28;20221;-65
2021/05/17 11:57:18;;;;;;;0.47;0.30;;;;;;;13.37;70.72;97597.84;5006245;28;20018;-65
2021/05/17 11:59:44;;;;;;;5.68;0.60;;;;;;;13.19;71.59;97614.59;5004856;28;20074;-65
2021/05/17 12:02:11;;;;;;;0.30;0.22;;;;;;;12.91;71.83;97605.22;5006137;28;20067;-65
2021/05/17 12:04:41;;;;;;;2.15;0.50;;;;;;;12.62;71.53;97613.56;5006001;28;20048;-65
2021/05/17 12:07:15;;;;;;;1.00;0.20;;;;;;;12.63;71.93;97625.84;5006013;28;20032;-65
2021/05/17 12:09:51;;;;;;;0.20;0.20;;;;;;;12.73;73.60;97619.25;5005998;28;20089;-65
2021/05/17 12:12:23;;;;;;;1.88;0.30;;;;;;;13.24;74.94;97597.59;5005968;28;20157;-65